sensor_id;sensor_type;location;lat;lon;timestamp;P1;durP1;ratioP1;P2;durP2;ratioP2
19509;SDS011;9896;42.486;26.506;2023-01-25T00:02:18;5.97;;;3.67;;
19509;SDS011;9896;42.486;26.506;2023-01-25T00:04:44;9.10;;;5.33;;
19509;SDS011;9896;42.486;26.506;2023-01-25T00:07:09;8.20;;;4.67;;
19509;SDS011;9896;42.486;26.506;2023-01-25T00:09:34;9.33;;;5.03;;
19509;SDS011;9896;42.486;26.506;2023-01-25T00:12:00;7.03;;;3.90;;
19509;SDS011;9896;42.486;26.506;2023-01-25T00:14:25;9.97;;;4.73;;
19509;SDS011;9896;42.486;26.506;2023-01-25T00:16:51;10.83;;;5.83;;
19509;SDS011;9896;42.486;26.506;2023-01-25T00:19:16;9.20;;;4.90;;
19509;SDS011;9896;42.486;26.506;2023-01-25T00:21:41;7.20;;;4.47;;
19509;SDS011;9896;42.486;26.506;2023-01-25T00:24:07;11.23;;;5.27;;
19509;SDS011;9896;42.486;26.506;2023-01-25T00:26:34;8.07;;;4.73;;
19509;SDS011;9896;42.486;26.506;2023-01-25T00:29:00;8.17;;;4.50;;
19509;SDS011;9896;42.486;26.506;2023-01-25T00:31:36;15.33;;;4.60;;
19509;SDS011;9896;42.486;26.506;2023-01-25T00:38:58;9.67;;;4.87;;
19509;SDS011;9896;42.486;26.506;2023-01-25T00:41:24;7.80;;;4.70;;
19509;SDS011;9896;42.486;26.506;2023-01-25T00:43:49;7.77;;;4.03;;
19509;SDS011;9896;42.486;26.506;2023-01-25T00:46:15;6.77;;;4.03;;
19509;SDS011;9896;42.486;26.506;2023-01-25T00:48:41;13.70;;;4.33;;
19509;SDS011;9896;42.486;26.506;2023-01-25T00:51:06;7.87;;;4.17;;
19509;SDS011;9896;42.486;26.506;2023-01-25T00:53:32;12.30;;;5.00;;
19509;SDS011;9896;42.486;26.506;2023-01-25T00:55:57;8.63;;;4.57;;
19509;SDS011;9896;42.486;26.506;2023-01-25T00:58:22;9.23;;;5.20;;
19509;SDS011;9896;42.486;26.506;2023-01-25T01:00:48;7.40;;;4.77;;
19509;SDS011;9896;42.486;26.506;2023-01-25T01:03:13;6.80;;;3.63;;
19509;SDS011;9896;42.486;26.506;2023-01-25T01:05:38;7.83;;;4.70;;
19509;SDS011;9896;42.486;26.506;2023-01-25T01:08:04;7.77;;;4.50;;
19509;SDS011;9896;42.486;26.506;2023-01-25T01:10:29;5.97;;;3.97;;
19509;SDS011;9896;42.486;26.506;2023-01-25T01:12:54;5.27;;;3.23;;
19509;SDS011;9896;42.486;26.506;2023-01-25T01:15:20;7.30;;;3.93;;
19509;SDS011;9896;42.486;26.506;2023-01-25T01:17:45;5.97;;;3.70;;
19509;SDS011;9896;42.486;26.506;2023-01-25T01:20:11;6.67;;;4.40;;
19509;SDS011;9896;42.486;26.506;2023-01-25T01:22:37;7.30;;;4.20;;
19509;SDS011;9896;42.486;26.506;2023-01-25T01:25:02;8.33;;;3.63;;
19509;SDS011;9896;42.486;26.506;2023-01-25T01:27:27;6.93;;;3.53;;
19509;SDS011;9896;42.486;26.506;2023-01-25T01:29:53;6.77;;;3.73;;
19509;SDS011;9896;42.486;26.506;2023-01-25T01:32:18;6.87;;;3.80;;
19509;SDS011;9896;42.486;26.506;2023-01-25T01:34:44;5.27;;;3.10;;
19509;SDS011;9896;42.486;26.506;2023-01-25T01:37:09;6.40;;;3.70;;
19509;SDS011;9896;42.486;26.506;2023-01-25T01:39:34;8.33;;;4.20;;
19509;SDS011;9896;42.486;26.506;2023-01-25T01:42:00;6.00;;;3.03;;
19509;SDS011;9896;42.486;26.506;2023-01-25T01:49:53;7.23;;;3.70;;
19509;SDS011;9896;42.486;26.506;2023-01-25T01:52:21;4.43;;;3.03;;
19509;SDS011;9896;42.486;26.506;2023-01-25T01:54:48;6.50;;;3.40;;
19509;SDS011;9896;42.486;26.506;2023-01-25T01:57:24;5.17;;;3.10;;
19509;SDS011;9896;42.486;26.506;2023-01-25T02:02:22;4.90;;;3.20;;
19509;SDS011;9896;42.486;26.506;2023-01-25T02:04:48;4.50;;;2.50;;
19509;SDS011;9896;42.486;26.506;2023-01-25T02:07:36;7.93;;;3.30;;
19509;SDS011;9896;42.486;26.506;2023-01-25T02:10:00;3.80;;;2.73;;
19509;SDS011;9896;42.486;26.506;2023-01-25T02:12:26;5.47;;;3.47;;
19509;SDS011;9896;42.486;26.506;2023-01-25T02:14:52;4.83;;;3.27;;
19509;SDS011;9896;42.486;26.506;2023-01-25T02:17:19;5.07;;;3.30;;
19509;SDS011;9896;42.486;26.506;2023-01-25T02:19:53;5.00;;;2.93;;
19509;SDS011;9896;42.486;26.506;2023-01-25T02:22:21;8.70;;;4.20;;
19509;SDS011;9896;42.486;26.506;2023-01-25T02:24:57;4.67;;;3.30;;
19509;SDS011;9896;42.486;26.506;2023-01-25T02:27:22;4.97;;;3.40;;
19509;SDS011;9896;42.486;26.506;2023-01-25T02:29:48;6.90;;;3.70;;
19509;SDS011;9896;42.486;26.506;2023-01-25T02:32:13;6.43;;;3.43;;
19509;SDS011;9896;42.486;26.506;2023-01-25T02:34:39;6.27;;;3.40;;
19509;SDS011;9896;42.486;26.506;2023-01-25T02:37:04;8.00;;;3.53;;
19509;SDS011;9896;42.486;26.506;2023-01-25T02:39:30;6.20;;;4.17;;
19509;SDS011;9896;42.486;26.506;2023-01-25T02:41:55;4.37;;;2.93;;
19509;SDS011;9896;42.486;26.506;2023-01-25T02:44:27;6.23;;;3.73;;
19509;SDS011;9896;42.486;26.506;2023-01-25T02:46:53;6.70;;;3.20;;
19509;SDS011;9896;42.486;26.506;2023-01-25T02:49:19;7.20;;;3.20;;
19509;SDS011;9896;42.486;26.506;2023-01-25T02:51:45;4.43;;;2.87;;
19509;SDS011;9896;42.486;26.506;2023-01-25T02:54:12;6.63;;;3.50;;
19509;SDS011;9896;42.486;26.506;2023-01-25T02:56:37;3.73;;;2.23;;
19509;SDS011;9896;42.486;26.506;2023-01-25T02:59:04;4.07;;;2.70;;
19509;SDS011;9896;42.486;26.506;2023-01-25T03:01:33;5.37;;;2.67;;
19509;SDS011;9896;42.486;26.506;2023-01-25T03:03:59;3.30;;;2.17;;
19509;SDS011;9896;42.486;26.506;2023-01-25T03:06:24;3.83;;;2.57;;
19509;SDS011;9896;42.486;26.506;2023-01-25T03:08:50;4.00;;;2.63;;
19509;SDS011;9896;42.486;26.506;2023-01-25T03:11:15;4.20;;;2.60;;
19509;SDS011;9896;42.486;26.506;2023-01-25T03:13:40;5.63;;;3.63;;
19509;SDS011;9896;42.486;26.506;2023-01-25T03:16:07;3.30;;;2.10;;
19509;SDS011;9896;42.486;26.506;2023-01-25T03:18:33;2.73;;;1.73;;
19509;SDS011;9896;42.486;26.506;2023-01-25T03:21:14;3.33;;;2.30;;
19509;SDS011;9896;42.486;26.506;2023-01-25T03:23:40;4.40;;;2.50;;
19509;SDS011;9896;42.486;26.506;2023-01-25T03:26:12;5.33;;;2.70;;
19509;SDS011;9896;42.486;26.506;2023-01-25T03:28:38;6.20;;;2.40;;
19509;SDS011;9896;42.486;26.506;2023-01-25T03:31:04;6.13;;;2.70;;
19509;SDS011;9896;42.486;26.506;2023-01-25T03:33:29;6.23;;;2.77;;
19509;SDS011;9896;42.486;26.506;2023-01-25T03:35:55;4.47;;;2.33;;
19509;SDS011;9896;42.486;26.506;2023-01-25T03:38:20;4.27;;;2.47;;
19509;SDS011;9896;42.486;26.506;2023-01-25T03:40:46;3.20;;;2.37;;
19509;SDS011;9896;42.486;26.506;2023-01-25T03:43:12;5.77;;;2.77;;
19509;SDS011;9896;42.486;26.506;2023-01-25T03:45:37;2.17;;;1.80;;
19509;SDS011;9896;42.486;26.506;2023-01-25T03:48:03;4.40;;;2.03;;
19509;SDS011;9896;42.486;26.506;2023-01-25T03:50:28;4.07;;;2.90;;
19509;SDS011;9896;42.486;26.506;2023-01-25T03:52:59;4.17;;;2.13;;
19509;SDS011;9896;42.486;26.506;2023-01-25T03:55:32;4.00;;;3.00;;
19509;SDS011;9896;42.486;26.506;2023-01-25T03:57:57;4.53;;;2.60;;
19509;SDS011;9896;42.486;26.506;2023-01-25T04:00:22;5.70;;;3.20;;
19509;SDS011;9896;42.486;26.506;2023-01-25T04:02:48;5.80;;;3.27;;
19509;SDS011;9896;42.486;26.506;2023-01-25T04:05:13;7.00;;;2.83;;
19509;SDS011;9896;42.486;26.506;2023-01-25T04:07:39;4.70;;;2.87;;
19509;SDS011;9896;42.486;26.506;2023-01-25T04:10:04;8.03;;;4.00;;
19509;SDS011;9896;42.486;26.506;2023-01-25T04:12:30;5.57;;;3.20;;
19509;SDS011;9896;42.486;26.506;2023-01-25T04:14:55;7.60;;;3.53;;
19509;SDS011;9896;42.486;26.506;2023-01-25T04:17:21;6.00;;;3.27;;
19509;SDS011;9896;42.486;26.506;2023-01-25T04:19:46;6.10;;;3.13;;
19509;SDS011;9896;42.486;26.506;2023-01-25T04:22:12;5.10;;;3.33;;
19509;SDS011;9896;42.486;26.506;2023-01-25T04:24:37;2.87;;;2.53;;
19509;SDS011;9896;42.486;26.506;2023-01-25T04:27:03;6.53;;;3.40;;
19509;SDS011;9896;42.486;26.506;2023-01-25T04:29:28;4.97;;;3.43;;
19509;SDS011;9896;42.486;26.506;2023-01-25T04:31:54;5.60;;;3.47;;
19509;SDS011;9896;42.486;26.506;2023-01-25T04:34:19;5.20;;;3.23;;
19509;SDS011;9896;42.486;26.506;2023-01-25T04:36:44;4.80;;;2.90;;
19509;SDS011;9896;42.486;26.506;2023-01-25T04:39:10;8.33;;;3.70;;
19509;SDS011;9896;42.486;26.506;2023-01-25T04:41:35;8.50;;;4.23;;
19509;SDS011;9896;42.486;26.506;2023-01-25T04:44:01;11.83;;;4.30;;
19509;SDS011;9896;42.486;26.506;2023-01-25T04:46:26;6.47;;;3.60;;
19509;SDS011;9896;42.486;26.506;2023-01-25T04:48:52;8.57;;;3.80;;
19509;SDS011;9896;42.486;26.506;2023-01-25T04:51:17;7.03;;;4.57;;
19509;SDS011;9896;42.486;26.506;2023-01-25T04:53:42;7.87;;;4.17;;
19509;SDS011;9896;42.486;26.506;2023-01-25T04:56:08;9.50;;;4.57;;
19509;SDS011;9896;42.486;26.506;2023-01-25T04:58:33;7.60;;;4.07;;
19509;SDS011;9896;42.486;26.506;2023-01-25T05:01:02;8.90;;;4.00;;
19509;SDS011;9896;42.486;26.506;2023-01-25T05:03:27;5.10;;;3.27;;
19509;SDS011;9896;42.486;26.506;2023-01-25T05:05:53;3.57;;;2.57;;
19509;SDS011;9896;42.486;26.506;2023-01-25T05:08:18;5.47;;;3.67;;
19509;SDS011;9896;42.486;26.506;2023-01-25T05:10:43;8.10;;;3.20;;
19509;SDS011;9896;42.486;26.506;2023-01-25T05:13:09;5.40;;;2.87;;
19509;SDS011;9896;42.486;26.506;2023-01-25T05:15:35;6.70;;;3.83;;
19509;SDS011;9896;42.486;26.506;2023-01-25T05:18:00;7.47;;;4.27;;
19509;SDS011;9896;42.486;26.506;2023-01-25T05:20:25;4.93;;;3.40;;
19509;SDS011;9896;42.486;26.506;2023-01-25T05:22:51;21.27;;;4.57;;
19509;SDS011;9896;42.486;26.506;2023-01-25T05:25:16;7.43;;;4.27;;
19509;SDS011;9896;42.486;26.506;2023-01-25T05:28:03;8.50;;;4.13;;
19509;SDS011;9896;42.486;26.506;2023-01-25T05:30:28;9.67;;;5.50;;
19509;SDS011;9896;42.486;26.506;2023-01-25T05:32:53;9.87;;;5.00;;
19509;SDS011;9896;42.486;26.506;2023-01-25T05:35:19;10.87;;;6.10;;
19509;SDS011;9896;42.486;26.506;2023-01-25T05:37:44;8.83;;;5.23;;
19509;SDS011;9896;42.486;26.506;2023-01-25T05:40:09;11.83;;;5.00;;
19509;SDS011;9896;42.486;26.506;2023-01-25T05:42:35;14.17;;;6.03;;
19509;SDS011;9896;42.486;26.506;2023-01-25T05:45:01;12.53;;;5.17;;
19509;SDS011;9896;42.486;26.506;2023-01-25T05:47:26;10.90;;;5.87;;
19509;SDS011;9896;42.486;26.506;2023-01-25T05:49:52;11.07;;;5.50;;
19509;SDS011;9896;42.486;26.506;2023-01-25T05:52:17;9.33;;;4.93;;
19509;SDS011;9896;42.486;26.506;2023-01-25T05:54:43;7.60;;;4.67;;
19509;SDS011;9896;42.486;26.506;2023-01-25T05:57:08;8.17;;;4.17;;
19509;SDS011;9896;42.486;26.506;2023-01-25T05:59:33;13.00;;;4.40;;
19509;SDS011;9896;42.486;26.506;2023-01-25T06:01:59;9.43;;;5.23;;
19509;SDS011;9896;42.486;26.506;2023-01-25T06:04:24;9.53;;;4.90;;
19509;SDS011;9896;42.486;26.506;2023-01-25T06:06:50;8.80;;;4.37;;
19509;SDS011;9896;42.486;26.506;2023-01-25T06:09:15;7.93;;;4.53;;
19509;SDS011;9896;42.486;26.506;2023-01-25T06:11:44;10.77;;;5.33;;
19509;SDS011;9896;42.486;26.506;2023-01-25T06:14:10;8.63;;;4.67;;
19509;SDS011;9896;42.486;26.506;2023-01-25T06:16:35;11.87;;;6.10;;
19509;SDS011;9896;42.486;26.506;2023-01-25T06:19:00;14.90;;;7.33;;
19509;SDS011;9896;42.486;26.506;2023-01-25T06:21:26;9.87;;;4.93;;
19509;SDS011;9896;42.486;26.506;2023-01-25T06:23:51;8.60;;;4.90;;
19509;SDS011;9896;42.486;26.506;2023-01-25T06:26:17;9.93;;;4.97;;
19509;SDS011;9896;42.486;26.506;2023-01-25T06:28:42;8.73;;;4.43;;
19509;SDS011;9896;42.486;26.506;2023-01-25T06:31:09;10.67;;;5.10;;
19509;SDS011;9896;42.486;26.506;2023-01-25T06:33:35;10.37;;;5.17;;
19509;SDS011;9896;42.486;26.506;2023-01-25T06:36:01;9.27;;;4.37;;
19509;SDS011;9896;42.486;26.506;2023-01-25T06:38:26;7.10;;;3.77;;
19509;SDS011;9896;42.486;26.506;2023-01-25T06:40:52;9.97;;;4.73;;
19509;SDS011;9896;42.486;26.506;2023-01-25T06:43:17;9.63;;;4.10;;
19509;SDS011;9896;42.486;26.506;2023-01-25T06:45:43;10.10;;;4.13;;
19509;SDS011;9896;42.486;26.506;2023-01-25T06:48:08;7.83;;;3.93;;
19509;SDS011;9896;42.486;26.506;2023-01-25T06:50:34;9.43;;;3.70;;
19509;SDS011;9896;42.486;26.506;2023-01-25T06:52:59;9.90;;;4.80;;
19509;SDS011;9896;42.486;26.506;2023-01-25T06:55:24;6.10;;;3.60;;
19509;SDS011;9896;42.486;26.506;2023-01-25T06:57:50;7.07;;;4.00;;
19509;SDS011;9896;42.486;26.506;2023-01-25T07:00:15;17.87;;;5.87;;
19509;SDS011;9896;42.486;26.506;2023-01-25T07:02:41;8.53;;;4.47;;
19509;SDS011;9896;42.486;26.506;2023-01-25T07:05:06;11.60;;;3.87;;
19509;SDS011;9896;42.486;26.506;2023-01-25T07:07:32;11.93;;;5.60;;
19509;SDS011;9896;42.486;26.506;2023-01-25T07:09:57;11.80;;;5.17;;
19509;SDS011;9896;42.486;26.506;2023-01-25T07:12:24;8.77;;;4.50;;
19509;SDS011;9896;42.486;26.506;2023-01-25T07:14:50;10.53;;;4.50;;
19509;SDS011;9896;42.486;26.506;2023-01-25T07:17:15;9.63;;;4.63;;
19509;SDS011;9896;42.486;26.506;2023-01-25T07:19:40;8.03;;;3.90;;
19509;SDS011;9896;42.486;26.506;2023-01-25T07:22:06;9.60;;;4.37;;
19509;SDS011;9896;42.486;26.506;2023-01-25T07:24:31;10.07;;;4.63;;
19509;SDS011;9896;42.486;26.506;2023-01-25T07:26:56;10.23;;;3.87;;
19509;SDS011;9896;42.486;26.506;2023-01-25T07:29:22;6.10;;;3.60;;
19509;SDS011;9896;42.486;26.506;2023-01-25T07:31:47;3.83;;;2.57;;
19509;SDS011;9896;42.486;26.506;2023-01-25T07:34:13;4.97;;;3.27;;
19509;SDS011;9896;42.486;26.506;2023-01-25T07:36:39;7.30;;;3.57;;
19509;SDS011;9896;42.486;26.506;2023-01-25T07:39:04;7.47;;;4.40;;
19509;SDS011;9896;42.486;26.506;2023-01-25T07:41:30;9.00;;;4.50;;
19509;SDS011;9896;42.486;26.506;2023-01-25T07:43:56;3.23;;;2.57;;
19509;SDS011;9896;42.486;26.506;2023-01-25T07:46:22;9.10;;;3.10;;
19509;SDS011;9896;42.486;26.506;2023-01-25T07:48:49;8.07;;;3.63;;
19509;SDS011;9896;42.486;26.506;2023-01-25T07:51:15;4.07;;;2.47;;
19509;SDS011;9896;42.486;26.506;2023-01-25T07:53:48;5.60;;;3.83;;
19509;SDS011;9896;42.486;26.506;2023-01-25T07:56:14;8.77;;;4.20;;
19509;SDS011;9896;42.486;26.506;2023-01-25T07:58:39;7.63;;;3.93;;
19509;SDS011;9896;42.486;26.506;2023-01-25T08:01:08;6.80;;;3.60;;
19509;SDS011;9896;42.486;26.506;2023-01-25T08:03:34;9.87;;;3.40;;
19509;SDS011;9896;42.486;26.506;2023-01-25T08:05:59;7.27;;;3.53;;
19509;SDS011;9896;42.486;26.506;2023-01-25T08:08:25;9.83;;;3.93;;
19509;SDS011;9896;42.486;26.506;2023-01-25T08:10:50;6.73;;;4.10;;
19509;SDS011;9896;42.486;26.506;2023-01-25T08:13:16;9.40;;;4.90;;
19509;SDS011;9896;42.486;26.506;2023-01-25T08:15:41;3.40;;;2.27;;
19509;SDS011;9896;42.486;26.506;2023-01-25T08:18:06;7.10;;;2.50;;
19509;SDS011;9896;42.486;26.506;2023-01-25T08:20:31;15.37;;;4.50;;
19509;SDS011;9896;42.486;26.506;2023-01-25T08:22:57;7.57;;;3.33;;
19509;SDS011;9896;42.486;26.506;2023-01-25T08:25:22;9.90;;;3.57;;
19509;SDS011;9896;42.486;26.506;2023-01-25T08:27:48;13.37;;;3.77;;
19509;SDS011;9896;42.486;26.506;2023-01-25T08:30:13;6.77;;;3.73;;
19509;SDS011;9896;42.486;26.506;2023-01-25T08:32:39;7.07;;;3.63;;
19509;SDS011;9896;42.486;26.506;2023-01-25T08:35:04;7.47;;;2.90;;
19509;SDS011;9896;42.486;26.506;2023-01-25T08:37:30;5.33;;;3.30;;
19509;SDS011;9896;42.486;26.506;2023-01-25T08:39:55;5.80;;;3.20;;
19509;SDS011;9896;42.486;26.506;2023-01-25T08:42:22;4.73;;;2.67;;
19509;SDS011;9896;42.486;26.506;2023-01-25T08:44:47;5.03;;;3.17;;
19509;SDS011;9896;42.486;26.506;2023-01-25T08:47:13;3.90;;;2.43;;
19509;SDS011;9896;42.486;26.506;2023-01-25T08:49:38;3.53;;;2.20;;
19509;SDS011;9896;42.486;26.506;2023-01-25T08:52:04;4.13;;;2.13;;
19509;SDS011;9896;42.486;26.506;2023-01-25T08:54:29;5.17;;;2.97;;
19509;SDS011;9896;42.486;26.506;2023-01-25T08:56:55;2.50;;;1.83;;
19509;SDS011;9896;42.486;26.506;2023-01-25T08:59:20;3.87;;;2.03;;
19509;SDS011;9896;42.486;26.506;2023-01-25T09:01:45;4.73;;;2.77;;
19509;SDS011;9896;42.486;26.506;2023-01-25T09:04:11;5.20;;;3.10;;
19509;SDS011;9896;42.486;26.506;2023-01-25T09:06:36;7.00;;;3.87;;
19509;SDS011;9896;42.486;26.506;2023-01-25T09:09:02;6.80;;;3.33;;
19509;SDS011;9896;42.486;26.506;2023-01-25T09:11:28;6.87;;;3.70;;
19509;SDS011;9896;42.486;26.506;2023-01-25T09:13:54;6.03;;;3.00;;
19509;SDS011;9896;42.486;26.506;2023-01-25T09:16:21;11.67;;;4.90;;
19509;SDS011;9896;42.486;26.506;2023-01-25T09:18:52;5.17;;;3.30;;
19509;SDS011;9896;42.486;26.506;2023-01-25T09:21:18;3.70;;;2.60;;
19509;SDS011;9896;42.486;26.506;2023-01-25T09:23:43;6.23;;;3.33;;
19509;SDS011;9896;42.486;26.506;2023-01-25T09:26:12;6.20;;;4.10;;
19509;SDS011;9896;42.486;26.506;2023-01-25T09:28:39;6.30;;;3.60;;
19509;SDS011;9896;42.486;26.506;2023-01-25T09:31:05;7.47;;;4.50;;
19509;SDS011;9896;42.486;26.506;2023-01-25T09:33:33;6.53;;;3.77;;
19509;SDS011;9896;42.486;26.506;2023-01-25T09:35:58;13.07;;;4.60;;
19509;SDS011;9896;42.486;26.506;2023-01-25T09:38:24;8.40;;;4.23;;
19509;SDS011;9896;42.486;26.506;2023-01-25T09:46:08;8.17;;;3.47;;
19509;SDS011;9896;42.486;26.506;2023-01-25T09:48:41;3.80;;;2.30;;
19509;SDS011;9896;42.486;26.506;2023-01-25T09:53:48;3.93;;;2.30;;
19509;SDS011;9896;42.486;26.506;2023-01-25T09:56:28;5.60;;;3.10;;
19509;SDS011;9896;42.486;26.506;2023-01-25T09:58:56;6.97;;;3.47;;
19509;SDS011;9896;42.486;26.506;2023-01-25T10:01:43;7.67;;;3.17;;
19509;SDS011;9896;42.486;26.506;2023-01-25T10:04:15;6.83;;;3.63;;
19509;SDS011;9896;42.486;26.506;2023-01-25T10:06:43;8.60;;;4.87;;
19509;SDS011;9896;42.486;26.506;2023-01-25T10:11:48;7.43;;;4.07;;
19509;SDS011;9896;42.486;26.506;2023-01-25T10:14:14;8.27;;;3.60;;
19509;SDS011;9896;42.486;26.506;2023-01-25T10:19:14;11.03;;;6.03;;
19509;SDS011;9896;42.486;26.506;2023-01-25T10:21:44;17.63;;;8.20;;
19509;SDS011;9896;42.486;26.506;2023-01-25T10:26:37;14.73;;;7.50;;
19509;SDS011;9896;42.486;26.506;2023-01-25T10:31:48;17.50;;;8.23;;
19509;SDS011;9896;42.486;26.506;2023-01-25T10:34:37;14.03;;;8.03;;
19509;SDS011;9896;42.486;26.506;2023-01-25T10:37:03;14.70;;;6.47;;
19509;SDS011;9896;42.486;26.506;2023-01-25T10:39:36;12.90;;;6.37;;
19509;SDS011;9896;42.486;26.506;2023-01-25T10:42:10;15.23;;;7.10;;
19509;SDS011;9896;42.486;26.506;2023-01-25T10:44:36;24.60;;;9.83;;
19509;SDS011;9896;42.486;26.506;2023-01-25T10:52:18;15.90;;;7.67;;
19509;SDS011;9896;42.486;26.506;2023-01-25T10:54:44;18.50;;;8.33;;
19509;SDS011;9896;42.486;26.506;2023-01-25T10:57:14;17.63;;;9.30;;
19509;SDS011;9896;42.486;26.506;2023-01-25T10:59:43;16.93;;;8.33;;
19509;SDS011;9896;42.486;26.506;2023-01-25T11:04:53;20.63;;;9.10;;
19509;SDS011;9896;42.486;26.506;2023-01-25T11:07:27;19.87;;;8.87;;
19509;SDS011;9896;42.486;26.506;2023-01-25T11:09:54;15.63;;;8.27;;
19509;SDS011;9896;42.486;26.506;2023-01-25T11:12:20;12.97;;;7.23;;
19509;SDS011;9896;42.486;26.506;2023-01-25T11:14:46;15.93;;;7.10;;
19509;SDS011;9896;42.486;26.506;2023-01-25T11:17:27;15.07;;;6.40;;
19509;SDS011;9896;42.486;26.506;2023-01-25T11:22:36;26.17;;;8.10;;
19509;SDS011;9896;42.486;26.506;2023-01-25T11:25:23;14.97;;;7.60;;
19509;SDS011;9896;42.486;26.506;2023-01-25T11:27:47;16.67;;;8.17;;
19509;SDS011;9896;42.486;26.506;2023-01-25T11:30:15;16.37;;;8.53;;
19509;SDS011;9896;42.486;26.506;2023-01-25T11:32:43;14.93;;;7.97;;
19509;SDS011;9896;42.486;26.506;2023-01-25T11:35:12;14.40;;;7.57;;
19509;SDS011;9896;42.486;26.506;2023-01-25T11:40:10;20.30;;;8.80;;
19509;SDS011;9896;42.486;26.506;2023-01-25T11:51:04;14.77;;;7.93;;
19509;SDS011;9896;42.486;26.506;2023-01-25T11:53:49;14.37;;;6.87;;
19509;SDS011;9896;42.486;26.506;2023-01-25T12:06:46;15.23;;;8.93;;
19509;SDS011;9896;42.486;26.506;2023-01-25T12:11:43;17.93;;;9.63;;
19509;SDS011;9896;42.486;26.506;2023-01-25T12:14:20;16.53;;;8.87;;
19509;SDS011;9896;42.486;26.506;2023-01-25T12:22:15;17.37;;;7.93;;
19509;SDS011;9896;42.486;26.506;2023-01-25T12:29:47;10.23;;;4.50;;
19509;SDS011;9896;42.486;26.506;2023-01-25T12:32:20;9.90;;;3.53;;
19509;SDS011;9896;42.486;26.506;2023-01-25T12:34:50;9.40;;;5.13;;
19509;SDS011;9896;42.486;26.506;2023-01-25T12:39:46;14.17;;;5.07;;
19509;SDS011;9896;42.486;26.506;2023-01-25T12:42:18;10.60;;;4.60;;
19509;SDS011;9896;42.486;26.506;2023-01-25T12:44:55;16.93;;;3.80;;
19509;SDS011;9896;42.486;26.506;2023-01-25T12:47:24;5.80;;;3.37;;
19509;SDS011;9896;42.486;26.506;2023-01-25T12:49:59;7.90;;;3.80;;
19509;SDS011;9896;42.486;26.506;2023-01-25T12:52:28;6.67;;;3.40;;
19509;SDS011;9896;42.486;26.506;2023-01-25T12:54:56;8.50;;;3.87;;
19509;SDS011;9896;42.486;26.506;2023-01-25T12:57:24;7.93;;;4.37;;
19509;SDS011;9896;42.486;26.506;2023-01-25T13:02:27;13.10;;;6.37;;
19509;SDS011;9896;42.486;26.506;2023-01-25T13:07:28;10.27;;;4.87;;
19509;SDS011;9896;42.486;26.506;2023-01-25T13:09:58;7.70;;;4.13;;
19509;SDS011;9896;42.486;26.506;2023-01-25T13:12:24;10.63;;;4.63;;
19509;SDS011;9896;42.486;26.506;2023-01-25T13:14:50;11.23;;;5.20;;
19509;SDS011;9896;42.486;26.506;2023-01-25T13:17:19;12.53;;;7.03;;
19509;SDS011;9896;42.486;26.506;2023-01-25T13:19:45;12.90;;;7.43;;
19509;SDS011;9896;42.486;26.506;2023-01-25T13:22:10;14.83;;;8.03;;
19509;SDS011;9896;42.486;26.506;2023-01-25T13:27:27;11.37;;;6.50;;
19509;SDS011;9896;42.486;26.506;2023-01-25T13:29:55;11.67;;;5.30;;
19509;SDS011;9896;42.486;26.506;2023-01-25T13:37:15;8.93;;;4.83;;
19509;SDS011;9896;42.486;26.506;2023-01-25T13:39:47;9.53;;;5.37;;
19509;SDS011;9896;42.486;26.506;2023-01-25T13:44:49;8.00;;;4.90;;
19509;SDS011;9896;42.486;26.506;2023-01-25T13:47:22;9.70;;;4.97;;
19509;SDS011;9896;42.486;26.506;2023-01-25T13:49:50;7.73;;;3.80;;
19509;SDS011;9896;42.486;26.506;2023-01-25T13:52:18;11.80;;;5.20;;
19509;SDS011;9896;42.486;26.506;2023-01-25T13:54:45;9.37;;;4.93;;
19509;SDS011;9896;42.486;26.506;2023-01-25T13:57:11;7.77;;;4.17;;
19509;SDS011;9896;42.486;26.506;2023-01-25T13:59:37;7.13;;;3.80;;
19509;SDS011;9896;42.486;26.506;2023-01-25T14:02:02;12.57;;;6.30;;
19509;SDS011;9896;42.486;26.506;2023-01-25T14:04:30;10.30;;;5.47;;
19509;SDS011;9896;42.486;26.506;2023-01-25T14:06:57;12.87;;;5.43;;
19509;SDS011;9896;42.486;26.506;2023-01-25T14:09:23;14.90;;;6.10;;
19509;SDS011;9896;42.486;26.506;2023-01-25T14:11:55;11.57;;;5.60;;
19509;SDS011;9896;42.486;26.506;2023-01-25T14:14:34;18.50;;;9.73;;
19509;SDS011;9896;42.486;26.506;2023-01-25T14:17:00;30.47;;;15.93;;
19509;SDS011;9896;42.486;26.506;2023-01-25T14:19:26;33.37;;;16.93;;
19509;SDS011;9896;42.486;26.506;2023-01-25T14:24:39;22.83;;;14.23;;
19509;SDS011;9896;42.486;26.506;2023-01-25T14:27:04;18.13;;;10.40;;
19509;SDS011;9896;42.486;26.506;2023-01-25T14:29:30;20.83;;;10.17;;
19509;SDS011;9896;42.486;26.506;2023-01-25T14:31:56;22.03;;;10.53;;
19509;SDS011;9896;42.486;26.506;2023-01-25T14:34:22;27.60;;;10.40;;
19509;SDS011;9896;42.486;26.506;2023-01-25T14:36:51;16.57;;;9.27;;
19509;SDS011;9896;42.486;26.506;2023-01-25T14:39:28;20.03;;;9.97;;
19509;SDS011;9896;42.486;26.506;2023-01-25T14:41:53;17.03;;;8.93;;
19509;SDS011;9896;42.486;26.506;2023-01-25T14:44:20;25.63;;;12.00;;
19509;SDS011;9896;42.486;26.506;2023-01-25T14:46:46;18.63;;;8.37;;
19509;SDS011;9896;42.486;26.506;2023-01-25T14:52:01;13.73;;;7.20;;
19509;SDS011;9896;42.486;26.506;2023-01-25T14:54:28;23.03;;;11.07;;
19509;SDS011;9896;42.486;26.506;2023-01-25T14:56:55;24.67;;;12.60;;
19509;SDS011;9896;42.486;26.506;2023-01-25T15:04:53;30.97;;;16.30;;
19509;SDS011;9896;42.486;26.506;2023-01-25T15:07:32;29.93;;;18.90;;
19509;SDS011;9896;42.486;26.506;2023-01-25T15:10:00;32.80;;;16.90;;
19509;SDS011;9896;42.486;26.506;2023-01-25T15:12:27;27.53;;;13.23;;
19509;SDS011;9896;42.486;26.506;2023-01-25T15:14:54;15.80;;;8.13;;
19509;SDS011;9896;42.486;26.506;2023-01-25T15:17:41;17.53;;;8.20;;
19509;SDS011;9896;42.486;26.506;2023-01-25T15:20:24;15.53;;;8.17;;
19509;SDS011;9896;42.486;26.506;2023-01-25T15:22:50;15.60;;;7.63;;
19509;SDS011;9896;42.486;26.506;2023-01-25T15:25:17;19.07;;;9.33;;
19509;SDS011;9896;42.486;26.506;2023-01-25T15:27:42;17.77;;;8.87;;
19509;SDS011;9896;42.486;26.506;2023-01-25T15:30:13;21.60;;;10.00;;
19509;SDS011;9896;42.486;26.506;2023-01-25T15:32:39;19.50;;;9.10;;
19509;SDS011;9896;42.486;26.506;2023-01-25T15:35:04;19.00;;;8.70;;
19509;SDS011;9896;42.486;26.506;2023-01-25T15:37:31;18.67;;;8.90;;
19509;SDS011;9896;42.486;26.506;2023-01-25T15:39:56;26.73;;;10.90;;
19509;SDS011;9896;42.486;26.506;2023-01-25T15:42:21;29.37;;;13.13;;
19509;SDS011;9896;42.486;26.506;2023-01-25T15:44:47;28.43;;;12.87;;
19509;SDS011;9896;42.486;26.506;2023-01-25T15:47:12;34.23;;;16.90;;
19509;SDS011;9896;42.486;26.506;2023-01-25T15:49:37;31.10;;;15.53;;
19509;SDS011;9896;42.486;26.506;2023-01-25T15:52:03;26.40;;;13.53;;
19509;SDS011;9896;42.486;26.506;2023-01-25T15:54:30;28.00;;;13.97;;
19509;SDS011;9896;42.486;26.506;2023-01-25T15:56:56;29.37;;;14.93;;
19509;SDS011;9896;42.486;26.506;2023-01-25T15:59:22;31.73;;;16.60;;
19509;SDS011;9896;42.486;26.506;2023-01-25T16:01:48;36.10;;;16.50;;
19509;SDS011;9896;42.486;26.506;2023-01-25T16:04:13;34.10;;;16.73;;
19509;SDS011;9896;42.486;26.506;2023-01-25T16:06:40;33.43;;;16.90;;
19509;SDS011;9896;42.486;26.506;2023-01-25T16:09:19;37.07;;;17.90;;
19509;SDS011;9896;42.486;26.506;2023-01-25T16:11:45;32.60;;;16.20;;
19509;SDS011;9896;42.486;26.506;2023-01-25T16:14:11;28.00;;;14.80;;
19509;SDS011;9896;42.486;26.506;2023-01-25T16:16:42;30.83;;;14.00;;
19509;SDS011;9896;42.486;26.506;2023-01-25T16:19:18;26.50;;;12.23;;
19509;SDS011;9896;42.486;26.506;2023-01-25T16:21:43;29.90;;;13.83;;
19509;SDS011;9896;42.486;26.506;2023-01-25T16:24:09;31.57;;;14.60;;
19509;SDS011;9896;42.486;26.506;2023-01-25T16:26:36;32.27;;;14.43;;